createdAt,value
2019-02-24T00:02:06.211Z,55.50
2019-02-24T00:04:48.449Z,56.30
2019-02-24T00:07:37.941Z,58.50
2019-02-24T00:10:13.272Z,58.50
2019-02-24T00:12:49.297Z,59.50
2019-02-24T00:15:24.832Z,59.90
2019-02-24T00:18:00.949Z,59.60
2019-02-24T00:20:36.681Z,58.90
2019-02-24T00:23:19.161Z,58.50
2019-02-24T00:25:54.903Z,57.80
2019-02-24T00:28:37.134Z,58.00
2019-02-24T00:31:13.022Z,57.70
2019-02-24T00:33:48.273Z,58.10
2019-02-24T00:36:24.053Z,58.10
2019-02-24T00:39:00.115Z,58.40
2019-02-24T00:41:36.359Z,58.20
2019-02-24T00:44:11.726Z,57.60
2019-02-24T00:46:47.476Z,57.70
2019-02-24T00:49:23.275Z,57.50
2019-02-24T00:52:05.455Z,57.80
2019-02-24T00:54:41.493Z,57.50
2019-02-24T00:57:17.234Z,57.90
2019-02-24T00:59:53.245Z,58.00
2019-02-24T01:02:35.497Z,58.20
2019-02-24T01:05:10.648Z,58.30
2019-02-24T01:07:46.019Z,58.80
2019-02-24T01:10:28.748Z,58.50
2019-02-24T01:13:10.242Z,58.30
2019-02-24T01:15:52.883Z,58.30
2019-02-24T01:18:41.125Z,58.30
2019-02-24T01:21:17.005Z,58.20
2019-02-24T01:23:59.306Z,58.10
2019-02-24T01:26:34.644Z,57.80
2019-02-24T01:29:16.637Z,57.60
2019-02-24T01:31:51.849Z,57.40
2019-02-24T01:34:33.634Z,57.80
2019-02-24T01:37:08.797Z,57.40
2019-02-24T01:39:44.726Z,57.60
2019-02-24T01:42:20.320Z,57.20
2019-02-24T01:45:02.766Z,57.30
2019-02-24T01:47:38.751Z,56.80
2019-02-24T01:50:20.513Z,57.40
2019-02-24T01:52:49.695Z,57.50
2019-02-24T01:55:31.697Z,57.40
2019-02-24T01:58:13.708Z,58.00
2019-02-24T02:00:56.401Z,57.70
2019-02-24T02:03:37.885Z,58.00
2019-02-24T02:06:13.694Z,58.20
2019-02-24T02:08:55.810Z,58.40
2019-02-24T02:11:31.459Z,58.00
2019-02-24T02:14:07.451Z,58.20
2019-02-24T02:16:49.942Z,58.20
2019-02-24T02:19:25.697Z,57.60
2019-02-24T02:22:08.294Z,57.30
2019-02-24T02:24:50.643Z,57.00
2019-02-24T02:27:26.384Z,56.80
2019-02-24T02:30:08.775Z,56.80
2019-02-24T02:32:50.365Z,56.90
2019-02-24T02:35:26.265Z,57.50
2019-02-24T02:38:02.280Z,57.30
2019-02-24T02:40:44.260Z,56.60
2019-02-24T02:43:19.763Z,56.60
2019-02-24T02:45:54.999Z,56.90
2019-02-24T02:48:24.168Z,57.40
2019-02-24T02:51:06.383Z,57.10
2019-02-24T02:53:48.959Z,57.20
2019-02-24T02:56:31.708Z,57.60
2019-02-24T02:59:07.890Z,57.50
2019-02-24T03:01:37.053Z,57.50
2019-02-24T03:04:06.236Z,57.30
2019-02-24T03:06:52.842Z,57.80
2019-02-24T03:09:22.011Z,57.60
2019-02-24T03:11:58.263Z,57.60
2019-02-24T03:14:27.521Z,57.80
2019-02-24T03:17:03.428Z,57.80
2019-02-24T03:19:32.604Z,58.10
2019-02-24T03:22:08.197Z,58.10
2019-02-24T03:24:37.369Z,57.80
2019-02-24T03:27:13.137Z,57.50
2019-02-24T03:29:48.758Z,57.60
2019-02-24T03:32:17.918Z,57.70
2019-02-24T03:34:53.203Z,57.40
2019-02-24T03:37:29.421Z,56.80
2019-02-24T03:39:58.600Z,56.50
2019-02-24T03:42:34.784Z,56.60
2019-02-24T03:45:12.204Z,56.80
2019-02-24T03:47:41.378Z,56.80
2019-02-24T03:50:16.751Z,57.20
2019-02-24T03:52:52.200Z,56.50
2019-02-24T03:55:34.998Z,56.30
2019-02-24T03:58:24.638Z,56.20
2019-02-24T04:01:00.113Z,56.30
2019-02-24T04:03:36.266Z,56.10
2019-02-24T04:06:12.586Z,55.70
2019-02-24T04:08:47.928Z,55.30
2019-02-24T04:11:17.105Z,54.90
2019-02-24T04:13:58.842Z,54.60
2019-02-24T04:16:33.998Z,54.30
2019-02-24T04:19:15.878Z,54.10
2019-02-24T04:21:51.356Z,53.70
2019-02-24T04:24:33.220Z,53.80
2019-02-24T04:27:02.452Z,53.70
2019-02-24T04:29:38.532Z,53.90
2019-02-24T04:32:20.223Z,53.70
2019-02-24T04:34:56.388Z,53.30
2019-02-24T04:37:32.404Z,53.20
2019-02-24T04:40:15.742Z,53.30
2019-02-24T04:42:51.646Z,53.70
2019-02-24T04:45:27.450Z,53.70
2019-02-24T04:48:02.816Z,54.00
2019-02-24T04:50:38.409Z,53.50
2019-02-24T04:53:13.798Z,53.90
2019-02-24T04:55:55.642Z,54.00
2019-02-24T04:58:31.707Z,54.10
2019-02-24T05:01:14.476Z,54.60
2019-02-24T05:03:50.251Z,54.50
2019-02-24T05:06:32.081Z,54.50
2019-02-24T05:09:01.201Z,54.50
2019-02-24T05:11:43.127Z,54.70
2019-02-24T05:14:18.948Z,54.60
2019-02-24T05:17:01.121Z,54.60
2019-02-24T05:19:43.658Z,54.40
2019-02-24T05:22:12.836Z,54.40
2019-02-24T05:24:48.640Z,54.10
2019-02-24T05:27:30.256Z,54.10
2019-02-24T05:30:06.299Z,53.90
2019-02-24T05:32:42.384Z,53.70
2019-02-24T05:35:17.587Z,54.10
2019-02-24T05:37:59.248Z,54.00
2019-02-24T05:40:34.399Z,53.70
2019-02-24T05:43:10.139Z,53.60
2019-02-24T05:45:45.838Z,54.10
2019-02-24T05:48:27.828Z,53.70
2019-02-24T05:51:09.918Z,53.70
2019-02-24T05:53:45.397Z,53.90
2019-02-24T05:56:27.749Z,53.80
2019-02-24T05:59:03.058Z,54.10
2019-02-24T06:01:45.055Z,53.80
2019-02-24T06:04:33.485Z,53.60
2019-02-24T06:07:09.798Z,53.20
2019-02-24T06:09:45.238Z,53.50
2019-02-24T06:12:21.227Z,53.40
2019-02-24T06:14:57.087Z,53.20
2019-02-24T06:17:32.585Z,53.10
2019-02-24T06:20:14.014Z,53.40
2019-02-24T06:22:56.188Z,53.40
2019-02-24T06:25:31.456Z,53.30
2019-02-24T06:28:06.774Z,53.20
2019-02-24T06:30:48.719Z,53.50
2019-02-24T06:33:31.237Z,53.20
2019-02-24T06:36:07.181Z,53.60
2019-02-24T06:38:43.504Z,53.20
2019-02-24T06:41:12.672Z,52.70
2019-02-24T06:43:54.798Z,52.90
2019-02-24T06:46:30.570Z,52.80
2019-02-24T06:49:12.965Z,52.90
2019-02-24T06:51:55.241Z,53.00
2019-02-24T06:54:37.621Z,52.90
2019-02-24T06:57:13.134Z,53.00
2019-02-24T06:59:55.560Z,52.90
2019-02-24T07:02:38.080Z,53.20
2019-02-24T07:05:13.283Z,53.50
2019-02-24T07:07:55.084Z,53.70
2019-02-24T07:10:30.207Z,53.60
2019-02-24T07:13:12.240Z,54.00
2019-02-24T07:15:47.413Z,53.70
2019-02-24T07:18:23.605Z,53.70
2019-02-24T07:20:59.140Z,53.30
2019-02-24T07:23:41.400Z,53.20
2019-02-24T07:26:17.047Z,52.90
2019-02-24T07:28:59.871Z,53.10
2019-02-24T07:31:41.704Z,53.20
2019-02-24T07:34:16.933Z,52.60
2019-02-24T07:36:53.138Z,52.50
2019-02-24T07:39:35.942Z,52.30
2019-02-24T07:42:11.143Z,52.30
2019-02-24T07:44:53.693Z,52.20
2019-02-24T07:47:29.625Z,53.10
2019-02-24T07:50:05.545Z,53.70
2019-02-24T07:52:40.748Z,53.30
2019-02-24T07:55:09.928Z,53.00
2019-02-24T07:57:52.692Z,52.90
2019-02-24T08:00:32.280Z,53.00
2019-02-24T08:03:05.069Z,52.60
2019-02-24T08:05:41.154Z,52.70
2019-02-24T08:08:17.163Z,53.00
2019-02-24T08:10:52.635Z,53.20
2019-02-24T08:13:28.533Z,53.00
2019-02-24T08:16:04.314Z,53.10
2019-02-24T08:18:49.040Z,53.00
2019-02-24T08:21:17.851Z,52.50
2019-02-24T08:23:54.055Z,52.00
2019-02-24T08:26:29.936Z,51.60
2019-02-24T08:29:05.983Z,51.60
2019-02-24T08:31:47.503Z,51.40
2019-02-24T08:34:23.472Z,51.50
2019-02-24T08:37:04.902Z,51.40
2019-02-24T08:39:46.865Z,51.30
2019-02-24T08:42:22.322Z,51.60
2019-02-24T08:45:04.867Z,51.80
2019-02-24T08:47:46.824Z,51.70
2019-02-24T08:50:23.040Z,51.90
2019-02-24T08:52:58.409Z,52.20
2019-02-24T08:55:40.284Z,52.20
2019-02-24T08:58:29.011Z,52.40
2019-02-24T09:01:10.566Z,53.00
2019-02-24T09:03:46.626Z,53.00
2019-02-24T09:06:28.625Z,53.80
2019-02-24T09:09:04.328Z,53.60
2019-02-24T09:11:40.221Z,53.80
2019-02-24T09:14:15.693Z,53.90
2019-02-24T09:16:57.854Z,53.80
2019-02-24T09:19:40.073Z,54.10
2019-02-24T09:22:15.309Z,54.30
2019-02-24T09:24:57.781Z,54.60
2019-02-24T09:27:33.101Z,54.50
2019-02-24T09:30:13.583Z,54.60
2019-02-24T09:32:49.794Z,54.70
2019-02-24T09:35:25.243Z,54.80
2019-02-24T09:38:06.803Z,54.80
2019-02-24T09:40:42.797Z,54.40
2019-02-24T09:43:18.976Z,54.20
2019-02-24T09:45:54.865Z,53.60
2019-02-24T09:48:37.196Z,53.50
2019-02-24T09:51:13.212Z,52.20
2019-02-24T09:53:48.551Z,52.10
2019-02-24T09:56:36.923Z,51.60
2019-02-24T09:59:33.577Z,51.10
2019-02-24T10:02:09.791Z,50.90
2019-02-24T10:04:53.038Z,50.80
2019-02-24T10:07:28.545Z,50.70
2019-02-24T10:10:04.616Z,50.20
2019-02-24T10:12:40.264Z,49.20
2019-02-24T10:15:21.195Z,48.90
2019-02-24T10:17:56.844Z,48.50
2019-02-24T10:20:39.663Z,48.60
2019-02-24T10:23:15.728Z,48.10
2019-02-24T10:25:58.254Z,48.10
2019-02-24T10:28:40.613Z,47.60
2019-02-24T10:31:23.223Z,46.80
2019-02-24T10:33:59.053Z,47.50
2019-02-24T10:36:41.468Z,47.00
2019-02-24T10:39:19.559Z,46.50
2019-02-24T10:42:02.750Z,46.50
2019-02-24T10:44:39.156Z,46.40
2019-02-24T10:47:21.760Z,45.10
2019-02-24T10:49:57.093Z,45.10
2019-02-24T10:52:39.214Z,45.30
2019-02-24T10:55:14.443Z,45.00
2019-02-24T10:57:55.788Z,44.70
2019-02-24T11:00:37.976Z,44.70
2019-02-24T11:03:19.675Z,45.10
2019-02-24T11:05:54.931Z,45.70
2019-02-24T11:08:30.197Z,45.60
2019-02-24T11:11:13.284Z,45.80
2019-02-24T11:13:49.116Z,46.00
2019-02-24T11:16:24.539Z,45.30
2019-02-24T11:19:06.948Z,45.20
2019-02-24T11:21:49.019Z,44.60
2019-02-24T11:24:24.833Z,45.20
2019-02-24T11:27:06.997Z,44.90
2019-02-24T11:29:49.372Z,45.00
2019-02-24T11:32:24.795Z,44.70
2019-02-24T11:35:06.906Z,44.90
2019-02-24T11:37:42.918Z,44.20
2019-02-24T11:40:31.411Z,43.60
2019-02-24T11:43:15.462Z,44.30
2019-02-24T11:45:50.804Z,43.80
2019-02-24T11:48:26.792Z,43.20
2019-02-24T11:51:09.303Z,43.70
2019-02-24T11:53:51.277Z,43.70
2019-02-24T11:56:26.544Z,43.30
2019-02-24T11:59:09.111Z,42.80
2019-02-24T12:01:50.905Z,42.80
2019-02-24T12:04:26.301Z,42.80
2019-02-24T12:07:01.599Z,41.90
2019-02-24T12:09:44.221Z,41.90
2019-02-24T12:12:22.158Z,41.30
2019-02-24T12:14:57.403Z,41.70
2019-02-24T12:17:39.579Z,42.00
2019-02-24T12:20:18.178Z,41.80
2019-02-24T12:23:09.546Z,41.00
2019-02-24T12:25:52.242Z,40.20
2019-02-24T12:28:29.008Z,40.90
2019-02-24T12:31:11.145Z,41.30
2019-02-24T12:33:46.797Z,40.50
2019-02-24T12:36:28.806Z,41.00
2019-02-24T12:39:07.397Z,40.00
2019-02-24T12:41:42.806Z,39.80
2019-02-24T12:44:18.982Z,39.10
2019-02-24T12:47:00.914Z,39.10
2019-02-24T12:49:36.833Z,38.90
2019-02-24T12:52:20.687Z,38.80
2019-02-24T12:55:03.062Z,38.20
2019-02-24T12:57:39.252Z,38.40
2019-02-24T13:00:15.063Z,38.10
2019-02-24T13:02:51.506Z,38.20
2019-02-24T13:05:27.504Z,38.40
2019-02-24T13:08:09.423Z,37.90
2019-02-24T13:10:45.201Z,39.10
2019-02-24T13:13:21.263Z,40.90
2019-02-24T13:16:03.246Z,41.00
2019-02-24T13:18:46.150Z,41.20
2019-02-24T13:21:24.602Z,40.70
2019-02-24T13:24:00.138Z,41.10
2019-02-24T13:26:42.283Z,40.80
2019-02-24T13:29:18.152Z,40.10
2019-02-24T13:32:00.642Z,40.50
2019-02-24T13:34:35.991Z,40.00
2019-02-24T13:37:05.208Z,40.30
2019-02-24T13:39:41.459Z,39.60
2019-02-24T13:42:17.049Z,39.60
2019-02-24T13:44:52.522Z,39.40
2019-02-24T13:47:35.110Z,39.00
2019-02-24T13:50:17.320Z,37.50
2019-02-24T13:52:53.081Z,36.90
2019-02-24T13:55:29.527Z,36.40
2019-02-24T13:58:12.411Z,36.40
2019-02-24T14:00:54.805Z,34.80
2019-02-24T14:03:37.085Z,34.60
2019-02-24T14:06:13.265Z,35.10
2019-02-24T14:08:49.420Z,35.20
2019-02-24T14:11:25.407Z,35.10
2019-02-24T14:14:07.194Z,33.50
2019-02-24T14:16:42.970Z,32.60
2019-02-24T14:19:25.333Z,32.00
2019-02-24T14:21:54.517Z,32.30
2019-02-24T14:24:44.136Z,34.00
2019-02-24T14:27:33.262Z,34.00
2019-02-24T14:30:18.755Z,33.60
2019-02-24T14:33:01.311Z,33.50
2019-02-24T14:35:36.759Z,34.80
2019-02-24T14:38:19.549Z,35.70
2019-02-24T14:40:54.964Z,34.80
2019-02-24T14:43:37.247Z,34.90
2019-02-24T14:46:13.278Z,35.30
2019-02-24T14:48:55.787Z,34.20
2019-02-24T14:51:31.496Z,35.20
2019-02-24T14:54:13.780Z,35.60
2019-02-24T14:56:55.891Z,36.20
2019-02-24T14:59:32.082Z,37.00
2019-02-24T15:02:07.781Z,35.10
2019-02-24T15:04:43.582Z,35.00
2019-02-24T15:07:19.425Z,33.70
2019-02-24T15:10:01.905Z,34.30
2019-02-24T15:12:31.368Z,34.60
2019-02-24T15:15:13.009Z,34.10
2019-02-24T15:18:02.366Z,34.20
2019-02-24T15:20:38.882Z,34.10
2019-02-24T15:23:21.099Z,33.90
2019-02-24T15:25:56.733Z,33.80
2019-02-24T15:28:38.609Z,33.10
2019-02-24T15:31:16.458Z,33.20
2019-02-24T15:33:58.722Z,33.60
2019-02-24T15:36:35.776Z,33.90
2019-02-24T15:39:17.774Z,34.00
2019-02-24T15:41:53.694Z,33.70
2019-02-24T15:44:35.529Z,33.30
2019-02-24T15:47:11.206Z,33.30
2019-02-24T15:49:54.024Z,33.20
2019-02-24T15:52:29.512Z,33.20
2019-02-24T15:55:11.665Z,34.00
2019-02-24T15:57:54.840Z,33.80
2019-02-24T16:00:38.441Z,33.40
2019-02-24T16:03:13.860Z,33.40
2019-02-24T16:05:56.137Z,32.80
2019-02-24T16:08:37.997Z,32.90
2019-02-24T16:11:20.733Z,32.70
2019-02-24T16:13:56.656Z,32.40
2019-02-24T16:16:38.843Z,32.60
2019-02-24T16:19:14.163Z,32.40
2019-02-24T16:21:50.082Z,32.40
2019-02-24T16:24:25.843Z,31.70
2019-02-24T16:27:02.068Z,32.00
2019-02-24T16:29:37.941Z,32.20
2019-02-24T16:32:19.871Z,32.40
2019-02-24T16:34:56.579Z,32.80
2019-02-24T16:37:32.376Z,32.50
2019-02-24T16:40:09.074Z,32.20
2019-02-24T16:42:44.606Z,32.90
2019-02-24T16:45:26.746Z,32.80
2019-02-24T16:48:02.079Z,32.20
2019-02-24T16:50:37.851Z,32.20
2019-02-24T16:53:14.040Z,32.40
2019-02-24T16:55:49.524Z,31.90
2019-02-24T16:58:25.665Z,32.30
2019-02-24T17:01:02.307Z,32.30
2019-02-24T17:03:43.721Z,32.20
2019-02-24T17:06:19.156Z,32.30
2019-02-24T17:09:03.312Z,32.50
2019-02-24T17:11:38.927Z,32.70
2019-02-24T17:14:24.761Z,32.80
2019-02-24T17:17:01.845Z,32.60
2019-02-24T17:19:38.110Z,33.20
2019-02-24T17:22:20.619Z,32.50
2019-02-24T17:24:56.429Z,33.20
2019-02-24T17:27:38.936Z,33.40
2019-02-24T17:30:12.393Z,33.10
2019-02-24T17:32:53.880Z,33.30
2019-02-24T17:35:30.093Z,33.40
2019-02-24T17:38:13.384Z,33.30
2019-02-24T17:40:56.037Z,33.10
2019-02-24T17:43:25.241Z,32.50
2019-02-24T17:46:07.424Z,31.70
2019-02-24T17:48:49.926Z,32.20
2019-02-24T17:51:25.738Z,30.90
2019-02-24T17:54:01.388Z,30.90
2019-02-24T17:56:44.338Z,31.00
2019-02-24T17:59:19.576Z,30.60
2019-02-24T18:02:02.125Z,31.40
2019-02-24T18:04:31.325Z,31.20
2019-02-24T18:07:07.443Z,31.60
2019-02-24T18:09:43.130Z,31.90
2019-02-24T18:12:25.883Z,31.80
2019-02-24T18:15:08.994Z,31.50
2019-02-24T18:17:50.880Z,32.10
2019-02-24T18:20:26.154Z,31.60
2019-02-24T18:23:08.328Z,31.70
2019-02-24T18:25:44.123Z,31.20
2019-02-24T18:28:26.578Z,31.30
2019-02-24T18:31:02.691Z,30.50
2019-02-24T18:33:38.655Z,31.10
2019-02-24T18:36:14.996Z,31.30
2019-02-24T18:38:57.301Z,31.80
2019-02-24T18:41:32.642Z,32.00
2019-02-24T18:44:08.317Z,32.00
2019-02-24T18:46:44.149Z,32.20
2019-02-24T18:49:21.276Z,32.00
2019-02-24T18:51:58.966Z,31.90
2019-02-24T18:54:34.971Z,31.90
2019-02-24T18:57:10.637Z,32.20
2019-02-24T18:59:53.665Z,31.90
2019-02-24T19:02:29.134Z,31.90
2019-02-24T19:05:11.854Z,32.10
2019-02-24T19:07:47.649Z,32.40
2019-02-24T19:10:30.909Z,32.30
2019-02-24T19:13:00.206Z,32.80
2019-02-24T19:15:36.419Z,32.70
2019-02-24T19:18:12.653Z,32.90
2019-02-24T19:20:54.746Z,32.50
2019-02-24T19:23:37.548Z,32.70
2019-02-24T19:26:21.387Z,32.30
2019-02-24T19:28:58.371Z,32.30
2019-02-24T19:31:33.900Z,32.10
2019-02-24T19:34:09.641Z,32.20
2019-02-24T19:36:52.035Z,31.60
2019-02-24T19:39:34.398Z,31.30
2019-02-24T19:42:09.896Z,31.20
2019-02-24T19:44:45.348Z,32.20
2019-02-24T19:47:27.753Z,30.00
2019-02-24T19:50:03.003Z,30.00
2019-02-24T19:52:45.499Z,29.60
2019-02-24T19:55:22.046Z,29.50
2019-02-24T19:58:04.634Z,29.80
2019-02-24T20:00:40.256Z,29.90
2019-02-24T20:03:22.578Z,29.40
2019-02-24T20:06:05.088Z,29.20
2019-02-24T20:08:41.025Z,29.80
2019-02-24T20:11:23.213Z,30.00
2019-02-24T20:13:52.427Z,30.40
2019-02-24T20:16:34.732Z,30.90
2019-02-24T20:19:10.442Z,31.40
2019-02-24T20:21:45.863Z,31.80
2019-02-24T20:24:32.977Z,32.20
2019-02-24T20:27:04.984Z,32.70
2019-02-24T20:29:47.728Z,33.10
2019-02-24T20:32:16.908Z,33.70
2019-02-24T20:34:59.781Z,34.00
2019-02-24T20:37:35.757Z,34.20
2019-02-24T20:40:21.458Z,35.00
2019-02-24T20:42:57.550Z,35.70
2019-02-24T20:45:34.074Z,36.60
2019-02-24T20:48:03.274Z,37.40
2019-02-24T20:50:51.118Z,38.10
2019-02-24T20:53:20.328Z,38.90
2019-02-24T20:56:02.528Z,39.30
2019-02-24T20:58:44.131Z,40.00
2019-02-24T21:01:20.399Z,40.80
2019-02-24T21:03:49.567Z,41.50
2019-02-24T21:06:25.463Z,42.10
2019-02-24T21:09:06.879Z,42.40
2019-02-24T21:11:43.189Z,43.30
2019-02-24T21:14:19.367Z,43.60
2019-02-24T21:16:55.536Z,44.10
2019-02-24T21:19:31.811Z,44.60
2019-02-24T21:22:07.960Z,45.10
2019-02-24T21:24:44.048Z,45.70
2019-02-24T21:27:25.661Z,46.30
2019-02-24T21:30:00.950Z,46.90
2019-02-24T21:32:43.394Z,47.70
2019-02-24T21:35:18.620Z,48.20
2019-02-24T21:38:01.046Z,48.70
2019-02-24T21:40:37.154Z,49.10
2019-02-24T21:43:19.534Z,49.70
2019-02-24T21:45:55.550Z,50.20
2019-02-24T21:48:31.402Z,50.70
2019-02-24T21:51:06.663Z,51.20
2019-02-24T21:53:41.939Z,51.60
2019-02-24T21:56:17.255Z,52.40
2019-02-24T21:58:53.372Z,53.00
2019-02-24T22:01:35.684Z,53.60
2019-02-24T22:04:11.438Z,54.10
2019-02-24T22:06:54.029Z,54.70
2019-02-24T22:09:36.332Z,55.20
2019-02-24T22:12:12.434Z,55.40
2019-02-24T22:14:54.000Z,55.70
2019-02-24T22:17:29.509Z,56.20
2019-02-24T22:20:20.674Z,56.60
2019-02-24T22:23:03.614Z,57.10
2019-02-24T22:25:39.607Z,57.80
2019-02-24T22:28:14.869Z,58.10
2019-02-24T22:30:50.599Z,58.40
2019-02-24T22:33:19.793Z,58.90
2019-02-24T22:35:55.455Z,59.50
2019-02-24T22:38:31.669Z,59.60
2019-02-24T22:41:00.862Z,60.10
2019-02-24T22:43:37.101Z,60.60
2019-02-24T22:46:12.704Z,61.10
2019-02-24T22:48:48.256Z,61.80
2019-02-24T22:51:24.146Z,62.10
2019-02-24T22:54:07.198Z,62.60
2019-02-24T22:56:49.552Z,63.00
2019-02-24T22:59:30.798Z,63.40
2019-02-24T23:02:13.163Z,64.10
2019-02-24T23:04:42.338Z,64.50
2019-02-24T23:07:11.520Z,64.60
2019-02-24T23:09:47.690Z,65.20
2019-02-24T23:12:23.365Z,65.20
2019-02-24T23:14:58.693Z,65.60
2019-02-24T23:17:41.468Z,65.80
2019-02-24T23:20:10.712Z,66.10
2019-02-24T23:22:39.891Z,66.50
2019-02-24T23:25:15.413Z,66.40
2019-02-24T23:27:57.065Z,66.90
2019-02-24T23:30:32.884Z,67.20
2019-02-24T23:33:15.293Z,67.60
2019-02-24T23:35:50.752Z,67.90
2019-02-24T23:38:19.935Z,68.50
2019-02-24T23:41:02.441Z,69.00
2019-02-24T23:43:38.358Z,69.40
2019-02-24T23:46:20.642Z,69.90
2019-02-24T23:48:56.363Z,70.40
2019-02-24T23:51:38.731Z,70.60
2019-02-24T23:54:07.902Z,70.90
2019-02-24T23:56:43.687Z,71.90
2019-02-24T23:59:19.247Z,72.30
